TimePST,TemperatureF,Dew PointF,Humidity,Sea Level PressureIn,VisibilityMPH,Wind Direction,Wind SpeedMPH,Gust SpeedMPH,PrecipitationIn,Events,Conditions,WindDirDegrees,DateUTC
12:15 AM,32.0,32.0,100,30.20,0.2,Calm,Calm,-,N/A,Fog,Fog,0,2014-01-18 08:15:00
12:35 AM,32.0,32.0,100,30.21,0.2,Calm,Calm,-,N/A,Fog,Light Freezing Fog,0,2014-01-18 08:35:00
12:55 AM,32.0,32.0,100,30.20,0.2,Calm,Calm,-,N/A,Fog,Light Freezing Fog,0,2014-01-18 08:55:00
1:15 AM,32.0,32.0,100,30.20,0.2,Calm,Calm,-,N/A,Fog,Light Freezing Fog,0,2014-01-18 09:15:00
1:35 AM,32.0,32.0,100,30.19,0.2,Calm,Calm,-,N/A,Fog,Light Freezing Fog,0,2014-01-18 09:35:00
1:55 AM,32.0,32.0,100,30.22,0.2,Calm,Calm,-,N/A,Fog,Light Freezing Fog,0,2014-01-18 09:55:00
2:15 AM,32.0,32.0,100,30.21,0.2,Calm,Calm,-,N/A,Fog,Light Freezing Fog,0,2014-01-18 10:15:00
2:35 AM,32.0,32.0,100,30.21,0.5,Calm,Calm,-,N/A,Fog,Light Freezing Fog,0,2014-01-18 10:35:00
2:55 AM,32.0,32.0,100,30.22,0.8,Calm,Calm,-,N/A,,Mist,0,2014-01-18 10:55:00
3:15 AM,32.0,32.0,100,30.21,0.5,Calm,Calm,-,N/A,Fog,Light Freezing Fog,0,2014-01-18 11:15:00
3:35 AM,32.0,32.0,100,30.21,1.0,Calm,Calm,-,N/A,,Mist,0,2014-01-18 11:35:00
3:55 AM,30.2,30.2,100,30.22,3.0,Calm,Calm,-,N/A,,Mist,0,2014-01-18 11:55:00
4:15 AM,30.2,30.2,100,30.21,0.2,Calm,Calm,-,N/A,Fog,Light Freezing Fog,0,2014-01-18 12:15:00
4:35 AM,30.2,30.2,100,30.21,4.0,Calm,Calm,-,N/A,,Mist,0,2014-01-18 12:35:00
4:55 AM,28.4,28.4,100,30.21,10.0,Calm,Calm,-,N/A,,Unknown,0,2014-01-18 12:55:00
5:15 AM,28.4,28.4,100,30.22,10.0,Calm,Calm,-,N/A,,Unknown,0,2014-01-18 13:15:00
5:35 AM,28.4,28.4,100,30.21,10.0,Calm,Calm,-,N/A,,Unknown,0,2014-01-18 13:35:00
5:55 AM,28.4,28.4,100,30.21,10.0,Calm,Calm,-,N/A,,Unknown,0,2014-01-18 13:55:00
6:15 AM,28.4,28.4,100,30.21,10.0,Calm,Calm,-,N/A,,Unknown,0,2014-01-18 14:15:00
6:35 AM,28.4,28.4,100,30.20,10.0,Calm,Calm,-,N/A,,Unknown,0,2014-01-18 14:35:00
6:55 AM,28.4,28.4,100,30.21,10.0,Calm,Calm,-,N/A,,Unknown,0,2014-01-18 14:55:00
7:15 AM,28.4,28.4,100,30.22,10.0,Calm,Calm,-,N/A,,Unknown,0,2014-01-18 15:15:00
7:35 AM,28.4,28.4,100,30.22,8.0,Calm,Calm,-,N/A,,Unknown,0,2014-01-18 15:35:00
7:55 AM,28.4,28.4,100,30.23,0.2,Calm,Calm,-,N/A,Fog,Light Freezing Fog,0,2014-01-18 15:55:00
8:15 AM,28.4,28.4,100,30.22,8.0,Calm,Calm,-,N/A,,Unknown,0,2014-01-18 16:15:00
8:35 AM,28.4,28.4,100,30.24,10.0,Calm,Calm,-,N/A,,Unknown,0,2014-01-18 16:35:00
8:55 AM,28.4,28.4,100,30.26,10.0,Calm,Calm,-,N/A,,Unknown,0,2014-01-18 16:55:00
9:15 AM,30.2,30.2,100,30.27,10.0,Calm,Calm,-,N/A,,Unknown,0,2014-01-18 17:15:00
9:35 AM,32.0,32.0,100,30.27,10.0,SSE,4.6,-,N/A,,Unknown,150,2014-01-18 17:35:00
9:55 AM,32.0,32.0,100,30.27,10.0,Calm,Calm,-,N/A,,Unknown,0,2014-01-18 17:55:00
10:15 AM,32.0,32.0,100,30.27,8.0,Calm,Calm,-,N/A,,Unknown,0,2014-01-18 18:15:00
10:35 AM,33.8,33.8,100,30.28,10.0,Calm,Calm,-,N/A,,Unknown,0,2014-01-18 18:35:00
10:55 AM,35.6,35.6,100,30.27,10.0,Calm,Calm,-,N/A,,Unknown,0,2014-01-18 18:55:00
11:15 AM,39.2,39.2,100,30.27,10.0,Calm,Calm,-,N/A,,Unknown,0,2014-01-18 19:15:00
11:35 AM,41.0,41.0,100,30.26,10.0,Calm,Calm,-,N/A,,Unknown,0,2014-01-18 19:35:00
11:55 AM,42.8,39.2,87,30.26,10.0,Calm,Calm,-,N/A,,Unknown,0,2014-01-18 19:55:00
12:15 PM,44.6,39.2,81,30.25,10.0,Calm,Calm,-,N/A,,Unknown,0,2014-01-18 20:15:00
12:35 PM,44.6,39.2,81,30.26,10.0,Calm,Calm,-,N/A,,Unknown,0,2014-01-18 20:35:00
12:55 PM,46.4,41.0,81,30.26,10.0,Calm,Calm,-,N/A,,Unknown,0,2014-01-18 20:55:00
1:15 PM,46.4,41.0,81,30.26,10.0,Calm,Calm,-,N/A,,Unknown,0,2014-01-18 21:15:00
1:35 PM,46.4,41.0,81,30.26,10.0,Calm,Calm,-,N/A,,Unknown,0,2014-01-18 21:35:00
1:55 PM,44.6,41.0,87,30.26,10.0,NNW,3.5,-,N/A,,Unknown,340,2014-01-18 21:55:00
2:15 PM,46.4,39.2,76,30.26,10.0,NNW,3.5,-,N/A,,Unknown,330,2014-01-18 22:15:00
2:35 PM,46.4,39.2,76,30.26,10.0,NNE,3.5,-,N/A,,Unknown,20,2014-01-18 22:35:00
2:55 PM,46.4,39.2,76,30.26,10.0,Calm,Calm,-,N/A,,Unknown,0,2014-01-18 22:55:00
3:15 PM,46.4,39.2,76,30.25,10.0,Calm,Calm,-,N/A,,Unknown,0,2014-01-18 23:15:00
3:35 PM,46.4,39.2,76,30.25,10.0,NNW,3.5,-,N/A,,Unknown,340,2014-01-18 23:35:00
3:55 PM,46.4,39.2,76,30.25,10.0,Calm,Calm,-,N/A,,Unknown,0,2014-01-18 23:55:00
4:15 PM,44.6,41.0,87,30.24,10.0,Calm,Calm,-,N/A,,Unknown,0,2014-01-19 00:15:00
4:35 PM,41.0,39.2,93,30.24,10.0,Calm,Calm,-,N/A,,Unknown,0,2014-01-19 00:35:00
4:55 PM,41.0,41.0,100,30.24,10.0,Calm,Calm,-,N/A,,Unknown,0,2014-01-19 00:55:00
5:15 PM,39.2,39.2,100,30.24,10.0,Calm,Calm,-,N/A,,Unknown,0,2014-01-19 01:15:00
5:35 PM,39.2,39.2,100,30.23,10.0,Calm,Calm,-,N/A,,Unknown,0,2014-01-19 01:35:00
5:55 PM,39.2,39.2,100,30.23,10.0,Calm,Calm,-,N/A,,Unknown,0,2014-01-19 01:55:00
6:15 PM,37.4,37.4,100,30.21,8.0,Calm,Calm,-,N/A,,Unknown,0,2014-01-19 02:15:00
6:35 PM,39.2,39.2,100,30.21,8.0,Calm,Calm,-,N/A,,Unknown,0,2014-01-19 02:35:00
6:55 PM,39.2,39.2,100,30.20,9.0,Calm,Calm,-,N/A,,Unknown,0,2014-01-19 02:55:00
7:15 PM,37.4,37.4,100,30.22,7.0,Calm,Calm,-,N/A,,Unknown,0,2014-01-19 03:15:00
7:35 PM,37.4,37.4,100,30.22,5.0,Calm,Calm,-,N/A,,Mist,0,2014-01-19 03:35:00
7:55 PM,37.4,37.4,100,30.21,5.0,Calm,Calm,-,N/A,,Mist,0,2014-01-19 03:55:00
8:15 PM,37.4,37.4,100,30.23,5.0,Calm,Calm,-,N/A,,Mist,0,2014-01-19 04:15:00
8:35 PM,37.4,37.4,100,30.21,5.0,Calm,Calm,-,N/A,,Mist,0,2014-01-19 04:35:00
8:55 PM,37.4,37.4,100,30.20,4.0,Calm,Calm,-,N/A,,Mist,0,2014-01-19 04:55:00
9:15 PM,35.6,35.6,100,30.19,3.0,Calm,Calm,-,N/A,,Mist,0,2014-01-19 05:15:00
9:35 PM,35.6,35.6,100,30.17,4.0,Calm,Calm,-,N/A,,Mist,0,2014-01-19 05:35:00
9:55 PM,33.8,33.8,100,30.17,2.0,Calm,Calm,-,N/A,,Mist,0,2014-01-19 05:55:00
10:15 PM,33.8,33.8,100,30.17,2.5,Calm,Calm,-,N/A,,Mist,0,2014-01-19 06:15:00
10:35 PM,33.8,33.8,100,30.16,2.0,Calm,Calm,-,N/A,,Mist,0,2014-01-19 06:35:00
10:55 PM,32.0,32.0,100,30.16,2.5,Calm,Calm,-,N/A,,Mist,0,2014-01-19 06:55:00
11:15 PM,33.8,33.8,100,30.16,2.5,Calm,Calm,-,N/A,,Mist,0,2014-01-19 07:15:00
11:35 PM,33.8,33.8,100,30.17,1.0,Calm,Calm,-,N/A,,Mist,0,2014-01-19 07:35:00
11:55 PM,33.8,33.8,100,30.17,2.0,Calm,Calm,-,N/A,,Mist,0,2014-01-19 07:55:00